createdAt,value
2022-11-24T00:00:53.354Z,1.58
2022-11-24T00:05:06.141Z,1.30
2022-11-24T00:09:28.399Z,1.67
2022-11-24T00:13:43.252Z,1.25
2022-11-24T00:17:55.478Z,1.60
2022-11-24T00:22:07.684Z,0.98
2022-11-24T00:26:25.766Z,1.00
2022-11-24T00:30:38.087Z,1.27
2022-11-24T00:34:50.340Z,1.08
2022-11-24T00:39:05.832Z,1.20
2022-11-24T00:43:18.472Z,1.70
2022-11-24T00:47:33.556Z,1.30
2022-11-24T00:51:45.792Z,1.40
2022-11-24T00:55:58.366Z,1.35
2022-11-24T01:00:10.953Z,1.30
2022-11-24T01:04:23.265Z,1.23
2022-11-24T01:08:38.344Z,1.15
2022-11-24T01:12:51.071Z,1.23
2022-11-24T01:17:03.368Z,1.23
2022-11-24T01:21:16.746Z,1.33
2022-11-24T01:25:29.892Z,1.58
2022-11-24T01:29:42.131Z,1.60
2022-11-24T01:33:55.205Z,1.70
2022-11-24T01:38:07.474Z,1.50
2022-11-24T01:42:19.784Z,1.30
2022-11-24T01:46:45.664Z,1.20
2022-11-24T01:51:17.090Z,1.23
2022-11-24T01:55:36.903Z,1.33
2022-11-24T01:59:52.572Z,0.90
2022-11-24T02:04:08.949Z,1.40
2022-11-24T02:08:41.768Z,1.27
2022-11-24T02:12:56.764Z,0.88
2022-11-24T02:17:09.474Z,1.00
2022-11-24T02:21:21.739Z,0.88
2022-11-24T02:25:49.253Z,0.88
2022-11-24T02:30:01.676Z,1.20
2022-11-24T02:34:13.932Z,0.90
2022-11-24T02:38:34.028Z,0.90
2022-11-24T02:42:47.556Z,0.70
2022-11-24T02:47:09.363Z,1.20
2022-11-24T02:51:21.842Z,0.85
2022-11-24T02:55:34.073Z,1.30
2022-11-24T02:59:47.356Z,0.95
2022-11-24T03:04:00.146Z,0.88
2022-11-24T03:08:13.732Z,1.05
2022-11-24T03:12:26.009Z,0.93
2022-11-24T03:16:38.277Z,0.93
2022-11-24T03:20:50.514Z,0.70
2022-11-24T03:25:02.769Z,0.73
2022-11-24T03:29:15.057Z,0.50
2022-11-24T03:33:27.277Z,1.00
2022-11-24T03:37:39.520Z,0.60
2022-11-24T03:41:54.450Z,0.63
2022-11-24T03:46:06.818Z,0.65
2022-11-24T03:50:19.221Z,0.70
2022-11-24T03:54:31.558Z,0.50
2022-11-24T03:58:43.969Z,0.73
2022-11-24T04:02:56.276Z,0.60
2022-11-24T04:07:08.651Z,0.45
2022-11-24T04:11:39.767Z,0.40
2022-11-24T04:15:52.936Z,0.60
2022-11-24T04:20:06.111Z,0.60
2022-11-24T04:24:18.374Z,0.60
2022-11-24T04:28:30.598Z,0.47
2022-11-24T04:32:42.833Z,0.60
2022-11-24T04:36:55.195Z,0.80
2022-11-24T04:41:07.413Z,0.55
2022-11-24T04:45:19.643Z,0.60
2022-11-24T04:49:32.111Z,0.57
2022-11-24T04:53:51.605Z,0.80
2022-11-24T04:58:04.204Z,0.45
2022-11-24T05:02:16.715Z,0.52
2022-11-24T05:06:29.071Z,0.60
2022-11-24T05:10:41.476Z,0.57
2022-11-24T05:14:53.707Z,0.55
2022-11-24T05:19:05.947Z,0.77
2022-11-24T05:23:18.332Z,0.73
2022-11-24T05:27:30.610Z,0.32
2022-11-24T05:31:42.858Z,0.82
2022-11-24T05:35:55.574Z,0.70
2022-11-24T05:40:08.366Z,0.98
2022-11-24T05:44:20.594Z,1.13
2022-11-24T05:48:32.817Z,1.13
2022-11-24T05:52:45.187Z,0.68
2022-11-24T05:56:57.447Z,1.25
2022-11-24T06:01:09.756Z,1.05
2022-11-24T06:05:22.530Z,1.10
2022-11-24T06:09:38.041Z,1.15
2022-11-24T06:13:50.401Z,1.25
2022-11-24T06:18:02.768Z,1.20
2022-11-24T06:22:15.000Z,1.00
2022-11-24T06:26:27.480Z,0.90
2022-11-24T06:30:39.687Z,1.20
2022-11-24T06:34:51.945Z,1.15
2022-11-24T06:39:05.022Z,1.13
2022-11-24T06:43:17.241Z,0.75
2022-11-24T06:47:29.487Z,1.48
2022-11-24T06:51:42.735Z,0.77
2022-11-24T06:55:59.700Z,1.05
2022-11-24T07:00:12.639Z,1.63
2022-11-24T07:04:24.855Z,0.98
2022-11-24T07:08:37.232Z,1.17
2022-11-24T07:12:49.476Z,0.85
2022-11-24T07:17:11.828Z,0.88
2022-11-24T07:21:25.974Z,1.20
2022-11-24T07:25:38.844Z,1.00
2022-11-24T07:29:51.108Z,1.60
2022-11-24T07:34:03.402Z,0.77
2022-11-24T07:38:16.052Z,1.00
2022-11-24T07:42:28.500Z,1.75
2022-11-24T07:46:40.734Z,1.27
2022-11-24T07:50:56.109Z,1.02
2022-11-24T07:55:09.282Z,1.38
2022-11-24T07:59:21.656Z,0.85
2022-11-24T08:03:33.931Z,1.13
2022-11-24T08:07:46.194Z,1.30
2022-11-24T08:11:58.560Z,1.42
2022-11-24T08:16:13.338Z,0.95
2022-11-24T08:20:25.736Z,2.40
2022-11-24T08:24:38.447Z,1.00
2022-11-24T08:28:55.255Z,0.77
2022-11-24T08:33:07.576Z,0.75
2022-11-24T08:37:19.816Z,1.00
2022-11-24T08:41:32.490Z,1.23
2022-11-24T08:45:44.773Z,1.20
2022-11-24T08:49:57.048Z,1.10
2022-11-24T08:54:10.960Z,1.33
2022-11-24T08:58:23.183Z,1.02
2022-11-24T09:02:35.624Z,0.90
2022-11-24T09:06:47.888Z,1.70
2022-11-24T09:11:05.383Z,1.48
2022-11-24T09:15:17.873Z,1.42
2022-11-24T09:19:30.290Z,1.02
2022-11-24T09:23:43.127Z,1.17
2022-11-24T09:27:55.613Z,1.30
2022-11-24T09:32:07.823Z,0.80
2022-11-24T09:36:30.179Z,1.70
2022-11-24T09:40:42.415Z,1.13
2022-11-24T09:45:35.699Z,0.98
2022-11-24T09:50:00.354Z,0.90
2022-11-24T09:54:19.766Z,1.10
2022-11-24T09:58:43.213Z,0.73
2022-11-24T10:02:55.572Z,1.55
2022-11-24T10:07:34.562Z,1.50
2022-11-24T10:12:11.143Z,1.38
2022-11-24T10:16:59.907Z,0.70
2022-11-24T10:21:35.596Z,0.90
2022-11-24T10:26:01.931Z,0.82
2022-11-24T10:30:24.800Z,0.50
2022-11-24T10:34:46.131Z,0.65
2022-11-24T10:39:18.271Z,0.35
2022-11-24T10:43:30.977Z,0.47
2022-11-24T10:47:44.611Z,0.40
2022-11-24T10:52:09.061Z,0.50
2022-11-24T10:56:21.332Z,0.50
2022-11-24T11:00:35.002Z,0.73
2022-11-24T11:04:47.269Z,0.55
2022-11-24T11:09:08.372Z,0.68
2022-11-24T11:13:32.034Z,0.75
2022-11-24T11:17:45.664Z,0.70
2022-11-24T11:22:27.322Z,0.95
2022-11-24T11:26:40.233Z,0.82
2022-11-24T11:31:22.402Z,0.65
2022-11-24T11:35:34.942Z,0.80
2022-11-24T11:39:49.620Z,1.35
2022-11-24T11:44:14.931Z,0.50
2022-11-24T11:48:43.235Z,0.68
2022-11-24T11:53:05.945Z,0.68
2022-11-24T11:57:46.797Z,0.82
2022-11-24T12:02:22.590Z,0.90
2022-11-24T12:06:57.830Z,0.55
2022-11-24T12:11:19.352Z,0.60
2022-11-24T12:15:40.336Z,0.63
2022-11-24T12:20:18.692Z,0.90
2022-11-24T12:24:49.187Z,1.17
2022-11-24T12:29:24.824Z,0.60
2022-11-24T12:34:04.164Z,0.70
2022-11-24T12:38:32.822Z,0.50
2022-11-24T12:43:13.643Z,0.47
2022-11-24T12:47:42.621Z,0.65
2022-11-24T12:52:48.502Z,0.52
2022-11-24T12:57:08.626Z,0.40
2022-11-24T13:01:41.291Z,0.95
2022-11-24T13:06:15.298Z,0.50
2022-11-24T13:15:43.391Z,0.85
2022-11-24T13:19:50.116Z,1.05
2022-11-24T13:24:21.300Z,2.00
2022-11-24T13:29:12.960Z,1.30
2022-11-24T13:33:32.837Z,1.20
2022-11-24T13:37:47.656Z,1.02
2022-11-24T13:42:01.096Z,1.65
2022-11-24T13:46:13.458Z,0.80
2022-11-24T13:50:51.847Z,1.17
2022-11-24T13:55:13.407Z,1.08
2022-11-24T13:59:35.280Z,0.60
2022-11-24T14:08:39.162Z,1.15
2022-11-24T14:13:24.750Z,1.20
2022-11-24T14:17:38.345Z,2.08
2022-11-24T14:21:50.648Z,1.27
2022-11-24T14:26:03.051Z,0.80
2022-11-24T14:30:15.474Z,1.00
2022-11-24T14:34:30.558Z,1.67
2022-11-24T14:38:43.627Z,1.75
2022-11-24T14:42:55.953Z,1.63
2022-11-24T14:47:14.685Z,1.70
2022-11-24T14:51:32.151Z,3.40
2022-11-24T14:55:44.459Z,1.45
2022-11-24T15:00:09.834Z,2.10
2022-11-24T15:05:00.976Z,1.80
2022-11-24T15:08:58.399Z,1.70
2022-11-24T15:13:25.766Z,1.80
2022-11-24T15:17:38.147Z,0.85
2022-11-24T15:21:51.469Z,0.90
2022-11-24T15:26:03.746Z,0.88
2022-11-24T15:30:16.064Z,0.65
2022-11-24T15:34:29.492Z,0.88
2022-11-24T15:38:41.776Z,1.15
2022-11-24T15:42:56.109Z,1.00
2022-11-24T15:47:09.667Z,1.00
2022-11-24T15:51:27.435Z,1.08
2022-11-24T15:55:41.455Z,0.80
2022-11-24T15:59:54.071Z,1.00
2022-11-24T16:04:06.356Z,1.27
2022-11-24T16:08:18.778Z,0.82
2022-11-24T16:12:31.103Z,0.90
2022-11-24T16:16:43.464Z,1.38
2022-11-24T16:20:55.927Z,3.17
2022-11-24T16:25:08.638Z,7.18
2022-11-24T16:29:21.763Z,5.38
2022-11-24T16:33:34.044Z,8.63
2022-11-24T16:37:56.364Z,6.43
2022-11-24T16:42:08.732Z,2.95
2022-11-24T16:46:22.681Z,2.65
2022-11-24T16:50:35.042Z,3.20
2022-11-24T16:54:48.347Z,1.20
2022-11-24T16:59:00.637Z,1.13
2022-11-24T17:03:12.899Z,1.20
2022-11-24T17:07:25.215Z,1.10
2022-11-24T17:11:37.863Z,1.55
2022-11-24T17:15:54.120Z,1.40
2022-11-24T17:20:07.648Z,1.80
2022-11-24T17:24:19.915Z,1.60
2022-11-24T17:28:32.579Z,1.80
2022-11-24T17:32:44.828Z,1.48
2022-11-24T17:36:57.295Z,2.15
2022-11-24T17:41:09.714Z,1.70
2022-11-24T17:45:26.895Z,1.45
2022-11-24T17:49:39.249Z,2.15
2022-11-24T17:53:53.055Z,1.70
2022-11-24T17:58:05.406Z,1.40
2022-11-24T18:02:17.744Z,1.80
2022-11-24T18:06:30.344Z,1.80
2022-11-24T18:10:42.615Z,1.52
2022-11-24T18:14:57.615Z,1.98
2022-11-24T18:19:11.611Z,1.58
2022-11-24T18:23:24.847Z,1.55
2022-11-24T18:27:37.149Z,1.80
2022-11-24T18:31:49.497Z,2.03
2022-11-24T18:36:02.846Z,1.55
2022-11-24T18:40:17.057Z,1.77
2022-11-24T18:44:29.324Z,1.77
2022-11-24T18:48:42.377Z,1.73
2022-11-24T18:52:54.954Z,1.35
2022-11-24T18:57:07.239Z,1.50
2022-11-24T19:01:21.997Z,1.50
2022-11-24T19:05:35.463Z,2.05
2022-11-24T19:09:48.434Z,1.95
2022-11-24T19:14:02.297Z,2.05
2022-11-24T19:18:14.603Z,2.78
2022-11-24T19:22:26.857Z,2.30
2022-11-24T19:26:39.774Z,1.80
2022-11-24T19:30:52.089Z,2.40
2022-11-24T19:35:04.694Z,2.45
2022-11-24T19:39:17.538Z,2.25
2022-11-24T19:43:30.789Z,1.85
2022-11-24T19:47:43.182Z,1.55
2022-11-24T19:51:55.518Z,1.88
2022-11-24T19:56:17.062Z,1.70
2022-11-24T20:00:32.127Z,1.60
2022-11-24T20:04:44.625Z,1.90
2022-11-24T20:08:58.919Z,1.50
2022-11-24T20:13:11.197Z,1.58
2022-11-24T20:17:23.500Z,1.65
2022-11-24T20:21:37.282Z,1.58
2022-11-24T20:25:49.751Z,1.70
2022-11-24T20:30:04.590Z,2.17
2022-11-24T20:34:17.386Z,1.67
2022-11-24T20:38:31.798Z,1.63
2022-11-24T20:42:44.109Z,1.65
2022-11-24T20:46:58.860Z,2.42
2022-11-24T20:51:14.638Z,1.60
2022-11-24T20:55:26.902Z,1.80
2022-11-24T20:59:39.194Z,1.65
2022-11-24T21:03:57.707Z,1.50
2022-11-24T21:08:10.013Z,1.57
2022-11-24T21:12:22.298Z,1.95
2022-11-24T21:16:36.699Z,1.92
2022-11-24T21:20:49.228Z,1.83
2022-11-24T21:25:01.573Z,2.20
2022-11-24T21:29:15.735Z,2.10
2022-11-24T21:33:28.027Z,1.85
2022-11-24T21:37:40.353Z,2.70
2022-11-24T21:41:52.659Z,2.45
2022-11-24T21:46:07.909Z,2.97
2022-11-24T21:50:20.241Z,3.40
2022-11-24T21:54:32.853Z,3.45
2022-11-24T21:58:48.039Z,4.70
2022-11-24T22:03:10.299Z,4.00
2022-11-24T22:07:22.988Z,3.92
2022-11-24T22:11:35.320Z,3.70
2022-11-24T22:15:47.631Z,3.83
2022-11-24T22:19:59.967Z,3.53
2022-11-24T22:24:12.510Z,3.33
2022-11-24T22:28:36.016Z,3.60
2022-11-24T22:32:48.310Z,3.80
2022-11-24T22:37:00.578Z,3.47
2022-11-24T22:41:18.314Z,2.70
2022-11-24T22:45:30.632Z,3.03
2022-11-24T22:49:43.043Z,3.05
2022-11-24T22:53:58.390Z,3.00
2022-11-24T22:58:10.786Z,2.88
2022-11-24T23:02:23.095Z,3.03
2022-11-24T23:06:35.403Z,2.13
2022-11-24T23:10:47.869Z,3.40
2022-11-24T23:15:00.583Z,2.63
2022-11-24T23:19:13.355Z,2.70
2022-11-24T23:23:25.647Z,2.17
2022-11-24T23:27:38.000Z,3.00
2022-11-24T23:31:50.282Z,2.13
2022-11-24T23:36:04.842Z,2.17
2022-11-24T23:40:18.043Z,2.00
2022-11-24T23:44:30.326Z,2.22
2022-11-24T23:48:42.797Z,2.33
2022-11-24T23:52:55.214Z,1.80
2022-11-24T23:57:07.499Z,1.70
